sensor_id;sensor_type;location;lat;lon;timestamp;P1;durP1;ratioP1;P2;durP2;ratioP2
17753;SDS011;8999;48.994;9.150;2023-02-15T00:01:48;41.57;;;19.57;;
17753;SDS011;8999;48.994;9.150;2023-02-15T00:07:21;127.60;;;21.47;;
17753;SDS011;8999;48.994;9.150;2023-02-15T00:09:53;34.83;;;17.63;;
17753;SDS011;8999;48.994;9.150;2023-02-15T00:12:26;31.30;;;17.80;;
17753;SDS011;8999;48.994;9.150;2023-02-15T00:14:58;63.70;;;19.87;;
17753;SDS011;8999;48.994;9.150;2023-02-15T00:17:29;28.87;;;17.03;;
17753;SDS011;8999;48.994;9.150;2023-02-15T00:20:04;34.30;;;18.27;;
17753;SDS011;8999;48.994;9.150;2023-02-15T00:22:38;31.43;;;17.60;;
17753;SDS011;8999;48.994;9.150;2023-02-15T00:25:09;51.73;;;18.50;;
17753;SDS011;8999;48.994;9.150;2023-02-15T00:27:41;84.63;;;19.27;;
17753;SDS011;8999;48.994;9.150;2023-02-15T00:30:13;48.27;;;17.53;;
17753;SDS011;8999;48.994;9.150;2023-02-15T00:32:46;29.17;;;15.97;;
17753;SDS011;8999;48.994;9.150;2023-02-15T00:35:18;31.60;;;16.47;;
17753;SDS011;8999;48.994;9.150;2023-02-15T00:37:51;41.73;;;16.13;;
17753;SDS011;8999;48.994;9.150;2023-02-15T00:40:23;47.80;;;19.70;;
17753;SDS011;8999;48.994;9.150;2023-02-15T00:42:55;45.70;;;21.10;;
17753;SDS011;8999;48.994;9.150;2023-02-15T00:45:28;37.70;;;17.13;;
17753;SDS011;8999;48.994;9.150;2023-02-15T00:48:00;26.83;;;15.77;;
17753;SDS011;8999;48.994;9.150;2023-02-15T00:50:31;23.73;;;15.13;;
17753;SDS011;8999;48.994;9.150;2023-02-15T00:53:04;38.57;;;16.47;;
17753;SDS011;8999;48.994;9.150;2023-02-15T00:55:36;35.00;;;15.73;;
17753;SDS011;8999;48.994;9.150;2023-02-15T00:58:10;25.13;;;15.17;;
17753;SDS011;8999;48.994;9.150;2023-02-15T01:00:43;28.60;;;14.73;;
17753;SDS011;8999;48.994;9.150;2023-02-15T01:03:16;33.60;;;15.50;;
17753;SDS011;8999;48.994;9.150;2023-02-15T01:05:49;55.80;;;16.40;;
17753;SDS011;8999;48.994;9.150;2023-02-15T01:08:22;66.93;;;16.07;;
17753;SDS011;8999;48.994;9.150;2023-02-15T01:10:53;25.83;;;15.10;;
17753;SDS011;8999;48.994;9.150;2023-02-15T01:13:25;24.87;;;15.13;;
17753;SDS011;8999;48.994;9.150;2023-02-15T01:15:57;46.53;;;16.47;;
17753;SDS011;8999;48.994;9.150;2023-02-15T01:18:28;147.07;;;21.83;;
17753;SDS011;8999;48.994;9.150;2023-02-15T01:21:00;24.20;;;15.80;;
17753;SDS011;8999;48.994;9.150;2023-02-15T01:23:41;39.73;;;16.20;;
17753;SDS011;8999;48.994;9.150;2023-02-15T01:26:13;41.07;;;15.53;;
17753;SDS011;8999;48.994;9.150;2023-02-15T01:28:46;28.80;;;15.10;;
17753;SDS011;8999;48.994;9.150;2023-02-15T01:31:18;44.40;;;15.97;;
17753;SDS011;8999;48.994;9.150;2023-02-15T01:33:51;25.43;;;14.67;;
17753;SDS011;8999;48.994;9.150;2023-02-15T01:36:22;29.60;;;14.67;;
17753;SDS011;8999;48.994;9.150;2023-02-15T01:38:56;30.27;;;14.63;;
17753;SDS011;8999;48.994;9.150;2023-02-15T01:41:27;60.93;;;16.00;;
17753;SDS011;8999;48.994;9.150;2023-02-15T01:44:00;34.37;;;14.83;;
17753;SDS011;8999;48.994;9.150;2023-02-15T01:46:33;41.63;;;15.53;;
17753;SDS011;8999;48.994;9.150;2023-02-15T01:49:08;42.03;;;15.07;;
17753;SDS011;8999;48.994;9.150;2023-02-15T01:51:42;33.43;;;15.17;;
17753;SDS011;8999;48.994;9.150;2023-02-15T01:54:17;27.37;;;14.13;;
17753;SDS011;8999;48.994;9.150;2023-02-15T01:56:52;79.57;;;17.50;;
17753;SDS011;8999;48.994;9.150;2023-02-15T01:59:24;21.20;;;13.87;;
17753;SDS011;8999;48.994;9.150;2023-02-15T02:01:57;32.23;;;14.77;;
17753;SDS011;8999;48.994;9.150;2023-02-15T02:04:30;33.03;;;15.00;;
17753;SDS011;8999;48.994;9.150;2023-02-15T02:07:03;130.53;;;19.57;;
17753;SDS011;8999;48.994;9.150;2023-02-15T02:09:37;30.53;;;14.67;;
17753;SDS011;8999;48.994;9.150;2023-02-15T02:12:08;25.77;;;13.50;;
17753;SDS011;8999;48.994;9.150;2023-02-15T02:14:40;71.60;;;16.60;;
17753;SDS011;8999;48.994;9.150;2023-02-15T02:17:12;50.73;;;14.87;;
17753;SDS011;8999;48.994;9.150;2023-02-15T02:19:58;49.43;;;16.00;;
17753;SDS011;8999;48.994;9.150;2023-02-15T02:26:02;21.20;;;14.00;;
17753;SDS011;8999;48.994;9.150;2023-02-15T02:29:08;24.33;;;13.80;;
17753;SDS011;8999;48.994;9.150;2023-02-15T02:32:13;21.03;;;13.37;;
17753;SDS011;8999;48.994;9.150;2023-02-15T02:35:07;89.97;;;17.80;;
17753;SDS011;8999;48.994;9.150;2023-02-15T02:37:43;22.27;;;14.87;;
17753;SDS011;8999;48.994;9.150;2023-02-15T02:40:19;43.33;;;16.43;;
17753;SDS011;8999;48.994;9.150;2023-02-15T02:42:54;65.67;;;16.63;;
17753;SDS011;8999;48.994;9.150;2023-02-15T02:45:30;29.73;;;15.27;;
17753;SDS011;8999;48.994;9.150;2023-02-15T02:48:06;21.60;;;14.67;;
17753;SDS011;8999;48.994;9.150;2023-02-15T02:50:41;111.47;;;17.70;;
17753;SDS011;8999;48.994;9.150;2023-02-15T02:53:13;276.90;;;24.27;;
17753;SDS011;8999;48.994;9.150;2023-02-15T02:55:45;25.57;;;14.27;;
17753;SDS011;8999;48.994;9.150;2023-02-15T02:58:19;21.13;;;13.80;;
17753;SDS011;8999;48.994;9.150;2023-02-15T03:00:53;22.33;;;13.47;;
17753;SDS011;8999;48.994;9.150;2023-02-15T03:03:27;22.67;;;13.90;;
17753;SDS011;8999;48.994;9.150;2023-02-15T03:06:04;22.57;;;13.77;;
17753;SDS011;8999;48.994;9.150;2023-02-15T03:08:39;23.43;;;13.57;;
17753;SDS011;8999;48.994;9.150;2023-02-15T03:11:13;51.43;;;16.93;;
17753;SDS011;8999;48.994;9.150;2023-02-15T03:13:45;38.90;;;14.97;;
17753;SDS011;8999;48.994;9.150;2023-02-15T03:16:18;21.57;;;13.60;;
17753;SDS011;8999;48.994;9.150;2023-02-15T03:18:57;96.93;;;17.20;;
17753;SDS011;8999;48.994;9.150;2023-02-15T03:21:34;28.20;;;13.83;;
17753;SDS011;8999;48.994;9.150;2023-02-15T03:24:08;109.03;;;17.67;;
17753;SDS011;8999;48.994;9.150;2023-02-15T03:26:42;22.63;;;13.73;;
17753;SDS011;8999;48.994;9.150;2023-02-15T03:29:15;53.40;;;16.67;;
17753;SDS011;8999;48.994;9.150;2023-02-15T03:31:49;204.97;;;21.77;;
17753;SDS011;8999;48.994;9.150;2023-02-15T03:34:22;36.47;;;15.87;;
17753;SDS011;8999;48.994;9.150;2023-02-15T03:36:58;34.10;;;14.80;;
17753;SDS011;8999;48.994;9.150;2023-02-15T03:39:32;35.77;;;14.70;;
17753;SDS011;8999;48.994;9.150;2023-02-15T03:42:08;41.60;;;14.97;;
17753;SDS011;8999;48.994;9.150;2023-02-15T03:44:46;42.17;;;15.23;;
17753;SDS011;8999;48.994;9.150;2023-02-15T03:47:22;222.40;;;20.93;;
17753;SDS011;8999;48.994;9.150;2023-02-15T03:49:57;41.33;;;13.70;;
17753;SDS011;8999;48.994;9.150;2023-02-15T03:52:32;36.03;;;14.50;;
17753;SDS011;8999;48.994;9.150;2023-02-15T03:55:05;28.27;;;14.90;;
17753;SDS011;8999;48.994;9.150;2023-02-15T03:57:40;29.47;;;14.30;;
17753;SDS011;8999;48.994;9.150;2023-02-15T04:00:29;45.80;;;14.87;;
17753;SDS011;8999;48.994;9.150;2023-02-15T04:03:23;42.70;;;14.93;;
17753;SDS011;8999;48.994;9.150;2023-02-15T04:06:01;35.33;;;14.47;;
17753;SDS011;8999;48.994;9.150;2023-02-15T04:08:35;40.47;;;16.43;;
17753;SDS011;8999;48.994;9.150;2023-02-15T04:11:24;29.53;;;14.37;;
17753;SDS011;8999;48.994;9.150;2023-02-15T04:13:56;199.80;;;19.53;;
17753;SDS011;8999;48.994;9.150;2023-02-15T04:16:28;27.17;;;11.93;;
17753;SDS011;8999;48.994;9.150;2023-02-15T04:18:59;20.87;;;11.57;;
17753;SDS011;8999;48.994;9.150;2023-02-15T04:21:48;25.30;;;11.47;;
17753;SDS011;8999;48.994;9.150;2023-02-15T04:24:41;46.53;;;12.13;;
17753;SDS011;8999;48.994;9.150;2023-02-15T04:27:30;69.77;;;14.93;;
17753;SDS011;8999;48.994;9.150;2023-02-15T04:30:02;25.27;;;12.53;;
17753;SDS011;8999;48.994;9.150;2023-02-15T04:32:35;27.67;;;13.27;;
17753;SDS011;8999;48.994;9.150;2023-02-15T04:35:07;22.93;;;13.27;;
17753;SDS011;8999;48.994;9.150;2023-02-15T04:37:39;71.07;;;15.47;;
17753;SDS011;8999;48.994;9.150;2023-02-15T04:40:13;76.80;;;17.00;;
17753;SDS011;8999;48.994;9.150;2023-02-15T04:42:46;27.93;;;13.80;;
17753;SDS011;8999;48.994;9.150;2023-02-15T04:45:19;25.20;;;12.93;;
17753;SDS011;8999;48.994;9.150;2023-02-15T04:47:51;143.70;;;16.90;;
17753;SDS011;8999;48.994;9.150;2023-02-15T04:50:23;44.60;;;13.83;;
17753;SDS011;8999;48.994;9.150;2023-02-15T04:52:54;33.37;;;13.83;;
17753;SDS011;8999;48.994;9.150;2023-02-15T04:55:27;30.27;;;13.50;;
17753;SDS011;8999;48.994;9.150;2023-02-15T04:57:59;31.07;;;13.57;;
17753;SDS011;8999;48.994;9.150;2023-02-15T05:00:30;33.70;;;13.80;;
17753;SDS011;8999;48.994;9.150;2023-02-15T05:03:02;40.93;;;14.20;;
17753;SDS011;8999;48.994;9.150;2023-02-15T05:05:34;33.17;;;13.20;;
17753;SDS011;8999;48.994;9.150;2023-02-15T05:08:05;37.13;;;14.73;;
17753;SDS011;8999;48.994;9.150;2023-02-15T05:10:38;36.43;;;14.40;;
17753;SDS011;8999;48.994;9.150;2023-02-15T05:13:10;21.53;;;11.53;;
17753;SDS011;8999;48.994;9.150;2023-02-15T05:15:46;57.43;;;14.80;;
17753;SDS011;8999;48.994;9.150;2023-02-15T05:18:18;24.97;;;13.07;;
17753;SDS011;8999;48.994;9.150;2023-02-15T05:20:50;22.80;;;12.63;;
17753;SDS011;8999;48.994;9.150;2023-02-15T05:23:22;32.17;;;13.00;;
17753;SDS011;8999;48.994;9.150;2023-02-15T05:25:55;24.37;;;13.23;;
17753;SDS011;8999;48.994;9.150;2023-02-15T05:28:44;96.50;;;16.87;;
17753;SDS011;8999;48.994;9.150;2023-02-15T05:31:16;22.80;;;14.20;;
17753;SDS011;8999;48.994;9.150;2023-02-15T05:33:49;43.47;;;14.10;;
17753;SDS011;8999;48.994;9.150;2023-02-15T05:36:20;29.00;;;14.77;;
17753;SDS011;8999;48.994;9.150;2023-02-15T05:38:52;33.47;;;14.67;;
17753;SDS011;8999;48.994;9.150;2023-02-15T05:41:25;33.43;;;15.37;;
17753;SDS011;8999;48.994;9.150;2023-02-15T05:43:57;34.07;;;14.13;;
17753;SDS011;8999;48.994;9.150;2023-02-15T05:46:28;29.03;;;13.87;;
17753;SDS011;8999;48.994;9.150;2023-02-15T05:49:00;57.20;;;14.67;;
17753;SDS011;8999;48.994;9.150;2023-02-15T05:51:32;29.40;;;14.63;;
17753;SDS011;8999;48.994;9.150;2023-02-15T05:54:03;130.13;;;17.63;;
17753;SDS011;8999;48.994;9.150;2023-02-15T05:56:36;25.23;;;13.67;;
17753;SDS011;8999;48.994;9.150;2023-02-15T05:59:08;21.80;;;13.77;;
17753;SDS011;8999;48.994;9.150;2023-02-15T06:01:40;25.30;;;13.20;;
17753;SDS011;8999;48.994;9.150;2023-02-15T06:04:12;39.73;;;13.37;;
17753;SDS011;8999;48.994;9.150;2023-02-15T06:06:43;32.37;;;13.77;;
17753;SDS011;8999;48.994;9.150;2023-02-15T06:09:15;25.10;;;14.33;;
17753;SDS011;8999;48.994;9.150;2023-02-15T06:11:49;35.87;;;14.10;;
17753;SDS011;8999;48.994;9.150;2023-02-15T06:14:21;22.30;;;13.83;;
17753;SDS011;8999;48.994;9.150;2023-02-15T06:16:53;38.13;;;13.60;;
17753;SDS011;8999;48.994;9.150;2023-02-15T06:19:24;31.53;;;12.60;;
17753;SDS011;8999;48.994;9.150;2023-02-15T06:21:56;40.93;;;13.50;;
17753;SDS011;8999;48.994;9.150;2023-02-15T06:24:28;29.60;;;13.13;;
17753;SDS011;8999;48.994;9.150;2023-02-15T06:27:01;26.83;;;12.80;;
17753;SDS011;8999;48.994;9.150;2023-02-15T06:29:32;30.77;;;13.43;;
17753;SDS011;8999;48.994;9.150;2023-02-15T06:32:04;26.60;;;15.10;;
17753;SDS011;8999;48.994;9.150;2023-02-15T06:34:36;40.67;;;19.20;;
17753;SDS011;8999;48.994;9.150;2023-02-15T06:37:07;72.23;;;21.20;;
17753;SDS011;8999;48.994;9.150;2023-02-15T06:39:39;62.67;;;17.57;;
17753;SDS011;8999;48.994;9.150;2023-02-15T06:42:12;44.40;;;18.60;;
17753;SDS011;8999;48.994;9.150;2023-02-15T06:44:44;32.13;;;17.40;;
17753;SDS011;8999;48.994;9.150;2023-02-15T06:47:15;30.57;;;15.00;;
17753;SDS011;8999;48.994;9.150;2023-02-15T06:49:47;31.63;;;13.20;;
17753;SDS011;8999;48.994;9.150;2023-02-15T06:52:19;26.37;;;13.37;;
17753;SDS011;8999;48.994;9.150;2023-02-15T06:54:50;38.60;;;13.27;;
17753;SDS011;8999;48.994;9.150;2023-02-15T06:57:23;28.07;;;13.03;;
17753;SDS011;8999;48.994;9.150;2023-02-15T06:59:55;30.63;;;15.27;;
17753;SDS011;8999;48.994;9.150;2023-02-15T07:02:28;33.23;;;14.60;;
17753;SDS011;8999;48.994;9.150;2023-02-15T07:05:00;59.33;;;15.90;;
17753;SDS011;8999;48.994;9.150;2023-02-15T07:07:31;34.23;;;14.20;;
17753;SDS011;8999;48.994;9.150;2023-02-15T07:10:03;26.40;;;13.67;;
17753;SDS011;8999;48.994;9.150;2023-02-15T07:12:37;61.80;;;14.80;;
17753;SDS011;8999;48.994;9.150;2023-02-15T07:15:15;31.23;;;13.40;;
17753;SDS011;8999;48.994;9.150;2023-02-15T07:17:48;24.53;;;13.10;;
17753;SDS011;8999;48.994;9.150;2023-02-15T07:20:20;27.47;;;15.03;;
17753;SDS011;8999;48.994;9.150;2023-02-15T07:22:53;50.57;;;14.63;;
17753;SDS011;8999;48.994;9.150;2023-02-15T07:25:24;26.57;;;13.87;;
17753;SDS011;8999;48.994;9.150;2023-02-15T07:27:57;26.17;;;13.60;;
17753;SDS011;8999;48.994;9.150;2023-02-15T07:30:30;23.17;;;13.80;;
17753;SDS011;8999;48.994;9.150;2023-02-15T07:33:02;31.63;;;14.50;;
17753;SDS011;8999;48.994;9.150;2023-02-15T07:35:52;31.27;;;13.27;;
17753;SDS011;8999;48.994;9.150;2023-02-15T07:38:25;36.37;;;14.27;;
17753;SDS011;8999;48.994;9.150;2023-02-15T07:40:57;65.80;;;14.23;;
17753;SDS011;8999;48.994;9.150;2023-02-15T07:43:32;30.37;;;14.67;;
17753;SDS011;8999;48.994;9.150;2023-02-15T07:46:05;25.87;;;15.00;;
17753;SDS011;8999;48.994;9.150;2023-02-15T07:48:39;32.20;;;15.40;;
17753;SDS011;8999;48.994;9.150;2023-02-15T07:51:12;90.53;;;16.83;;
17753;SDS011;8999;48.994;9.150;2023-02-15T07:53:45;45.67;;;15.37;;
17753;SDS011;8999;48.994;9.150;2023-02-15T07:56:17;81.57;;;16.30;;
17753;SDS011;8999;48.994;9.150;2023-02-15T07:58:50;26.50;;;14.73;;
17753;SDS011;8999;48.994;9.150;2023-02-15T08:01:22;25.20;;;13.73;;
17753;SDS011;8999;48.994;9.150;2023-02-15T08:03:55;26.00;;;15.03;;
17753;SDS011;8999;48.994;9.150;2023-02-15T08:06:27;26.10;;;15.70;;
17753;SDS011;8999;48.994;9.150;2023-02-15T08:09:02;43.57;;;16.80;;
17753;SDS011;8999;48.994;9.150;2023-02-15T08:11:35;27.20;;;14.83;;
17753;SDS011;8999;48.994;9.150;2023-02-15T08:14:11;46.67;;;14.33;;
17753;SDS011;8999;48.994;9.150;2023-02-15T08:16:47;23.30;;;13.60;;
17753;SDS011;8999;48.994;9.150;2023-02-15T08:19:20;30.30;;;15.07;;
17753;SDS011;8999;48.994;9.150;2023-02-15T08:21:53;27.47;;;15.03;;
17753;SDS011;8999;48.994;9.150;2023-02-15T08:24:28;29.23;;;16.07;;
17753;SDS011;8999;48.994;9.150;2023-02-15T08:27:00;30.17;;;16.33;;
17753;SDS011;8999;48.994;9.150;2023-02-15T08:29:36;148.23;;;20.37;;
17753;SDS011;8999;48.994;9.150;2023-02-15T08:32:09;25.03;;;14.97;;
17753;SDS011;8999;48.994;9.150;2023-02-15T08:34:41;23.83;;;14.07;;
17753;SDS011;8999;48.994;9.150;2023-02-15T08:37:13;28.77;;;16.07;;
17753;SDS011;8999;48.994;9.150;2023-02-15T08:39:45;54.33;;;17.70;;
17753;SDS011;8999;48.994;9.150;2023-02-15T08:42:16;31.97;;;17.13;;
17753;SDS011;8999;48.994;9.150;2023-02-15T08:44:51;29.67;;;15.87;;
17753;SDS011;8999;48.994;9.150;2023-02-15T08:47:23;28.67;;;15.33;;
17753;SDS011;8999;48.994;9.150;2023-02-15T08:49:55;67.37;;;18.57;;
17753;SDS011;8999;48.994;9.150;2023-02-15T08:52:27;28.60;;;16.87;;
17753;SDS011;8999;48.994;9.150;2023-02-15T08:54:58;31.00;;;15.70;;
17753;SDS011;8999;48.994;9.150;2023-02-15T08:57:30;45.43;;;16.80;;
17753;SDS011;8999;48.994;9.150;2023-02-15T09:00:03;45.63;;;16.43;;
17753;SDS011;8999;48.994;9.150;2023-02-15T09:05:08;29.47;;;14.47;;
17753;SDS011;8999;48.994;9.150;2023-02-15T09:07:40;50.87;;;15.97;;
17753;SDS011;8999;48.994;9.150;2023-02-15T09:10:12;32.93;;;16.57;;
17753;SDS011;8999;48.994;9.150;2023-02-15T09:12:43;47.43;;;19.97;;
17753;SDS011;8999;48.994;9.150;2023-02-15T09:15:16;42.70;;;21.20;;
17753;SDS011;8999;48.994;9.150;2023-02-15T09:17:48;36.23;;;18.67;;
17753;SDS011;8999;48.994;9.150;2023-02-15T09:20:20;69.20;;;19.50;;
17753;SDS011;8999;48.994;9.150;2023-02-15T09:22:52;29.70;;;17.43;;
17753;SDS011;8999;48.994;9.150;2023-02-15T09:25:24;33.17;;;18.00;;
17753;SDS011;8999;48.994;9.150;2023-02-15T09:27:56;33.47;;;17.93;;
17753;SDS011;8999;48.994;9.150;2023-02-15T09:30:29;29.40;;;17.27;;
17753;SDS011;8999;48.994;9.150;2023-02-15T09:33:00;35.77;;;18.30;;
17753;SDS011;8999;48.994;9.150;2023-02-15T09:35:32;32.27;;;18.30;;
17753;SDS011;8999;48.994;9.150;2023-02-15T09:38:04;31.97;;;16.83;;
17753;SDS011;8999;48.994;9.150;2023-02-15T09:40:37;36.40;;;17.13;;
17753;SDS011;8999;48.994;9.150;2023-02-15T09:43:18;27.70;;;16.90;;
17753;SDS011;8999;48.994;9.150;2023-02-15T09:46:00;31.80;;;17.67;;
17753;SDS011;8999;48.994;9.150;2023-02-15T09:48:40;27.67;;;17.50;;
17753;SDS011;8999;48.994;9.150;2023-02-15T09:51:17;28.93;;;16.87;;
17753;SDS011;8999;48.994;9.150;2023-02-15T09:54:11;26.07;;;14.97;;
17753;SDS011;8999;48.994;9.150;2023-02-15T09:56:48;29.60;;;15.57;;
17753;SDS011;8999;48.994;9.150;2023-02-15T09:59:24;31.43;;;18.37;;
17753;SDS011;8999;48.994;9.150;2023-02-15T10:02:05;30.87;;;17.17;;
17753;SDS011;8999;48.994;9.150;2023-02-15T10:04:49;33.50;;;18.70;;
17753;SDS011;8999;48.994;9.150;2023-02-15T10:07:34;27.80;;;18.73;;
17753;SDS011;8999;48.994;9.150;2023-02-15T10:10:14;28.50;;;17.33;;
17753;SDS011;8999;48.994;9.150;2023-02-15T10:12:55;28.13;;;18.33;;
17753;SDS011;8999;48.994;9.150;2023-02-15T10:15:47;30.40;;;18.07;;
17753;SDS011;8999;48.994;9.150;2023-02-15T10:18:31;28.57;;;17.77;;
17753;SDS011;8999;48.994;9.150;2023-02-15T10:21:26;27.90;;;17.30;;
17753;SDS011;8999;48.994;9.150;2023-02-15T10:27:06;30.80;;;18.67;;
17753;SDS011;8999;48.994;9.150;2023-02-15T10:29:43;29.83;;;18.93;;
17753;SDS011;8999;48.994;9.150;2023-02-15T10:32:20;32.53;;;19.80;;
17753;SDS011;8999;48.994;9.150;2023-02-15T10:34:57;30.60;;;18.03;;
17753;SDS011;8999;48.994;9.150;2023-02-15T10:37:39;30.10;;;18.10;;
17753;SDS011;8999;48.994;9.150;2023-02-15T10:40:19;28.63;;;18.63;;
17753;SDS011;8999;48.994;9.150;2023-02-15T10:45:51;30.67;;;19.50;;
17753;SDS011;8999;48.994;9.150;2023-02-15T10:48:34;30.00;;;17.63;;
17753;SDS011;8999;48.994;9.150;2023-02-15T10:51:18;33.33;;;20.80;;
17753;SDS011;8999;48.994;9.150;2023-02-15T10:53:59;31.23;;;21.00;;
17753;SDS011;8999;48.994;9.150;2023-02-15T10:56:36;33.13;;;19.90;;
17753;SDS011;8999;48.994;9.150;2023-02-15T10:59:14;30.57;;;18.63;;
17753;SDS011;8999;48.994;9.150;2023-02-15T11:01:55;29.70;;;19.10;;
17753;SDS011;8999;48.994;9.150;2023-02-15T11:04:40;31.70;;;20.37;;
17753;SDS011;8999;48.994;9.150;2023-02-15T11:07:22;34.87;;;22.13;;
17753;SDS011;8999;48.994;9.150;2023-02-15T11:09:56;32.40;;;20.67;;
17753;SDS011;8999;48.994;9.150;2023-02-15T11:12:33;31.73;;;21.20;;
17753;SDS011;8999;48.994;9.150;2023-02-15T11:15:10;31.93;;;20.37;;
17753;SDS011;8999;48.994;9.150;2023-02-15T11:17:47;27.70;;;18.67;;
17753;SDS011;8999;48.994;9.150;2023-02-15T11:20:22;31.50;;;19.60;;
17753;SDS011;8999;48.994;9.150;2023-02-15T11:22:58;30.70;;;19.53;;
17753;SDS011;8999;48.994;9.150;2023-02-15T11:25:31;35.20;;;22.33;;
17753;SDS011;8999;48.994;9.150;2023-02-15T11:28:05;33.63;;;21.73;;
17753;SDS011;8999;48.994;9.150;2023-02-15T11:30:42;29.17;;;19.40;;
17753;SDS011;8999;48.994;9.150;2023-02-15T11:33:15;31.63;;;20.57;;
17753;SDS011;8999;48.994;9.150;2023-02-15T11:35:49;31.47;;;20.03;;
17753;SDS011;8999;48.994;9.150;2023-02-15T11:38:24;31.23;;;20.40;;
17753;SDS011;8999;48.994;9.150;2023-02-15T11:41:01;29.90;;;19.57;;
17753;SDS011;8999;48.994;9.150;2023-02-15T11:43:35;30.50;;;20.03;;
17753;SDS011;8999;48.994;9.150;2023-02-15T11:46:10;29.27;;;19.50;;
17753;SDS011;8999;48.994;9.150;2023-02-15T11:48:43;32.23;;;19.90;;
17753;SDS011;8999;48.994;9.150;2023-02-15T11:51:16;28.90;;;19.70;;
17753;SDS011;8999;48.994;9.150;2023-02-15T11:53:50;28.02;;;20.20;;
17753;SDS011;8999;48.994;9.150;2023-02-15T11:56:23;33.73;;;20.03;;
17753;SDS011;8999;48.994;9.150;2023-02-15T11:58:57;31.97;;;20.47;;
17753;SDS011;8999;48.994;9.150;2023-02-15T12:01:31;30.93;;;19.90;;
17753;SDS011;8999;48.994;9.150;2023-02-15T12:04:04;30.60;;;19.50;;
17753;SDS011;8999;48.994;9.150;2023-02-15T12:06:38;30.13;;;19.50;;
17753;SDS011;8999;48.994;9.150;2023-02-15T12:09:16;28.40;;;19.43;;
17753;SDS011;8999;48.994;9.150;2023-02-15T12:11:50;30.77;;;19.92;;
17753;SDS011;8999;48.994;9.150;2023-02-15T12:14:24;29.57;;;19.90;;
17753;SDS011;8999;48.994;9.150;2023-02-15T12:16:56;29.48;;;19.88;;
17753;SDS011;8999;48.994;9.150;2023-02-15T12:19:29;34.30;;;20.03;;
17753;SDS011;8999;48.994;9.150;2023-02-15T12:22:02;31.10;;;20.60;;
17753;SDS011;8999;48.994;9.150;2023-02-15T12:24:36;34.63;;;22.00;;
17753;SDS011;8999;48.994;9.150;2023-02-15T12:27:13;32.97;;;21.63;;
17753;SDS011;8999;48.994;9.150;2023-02-15T12:29:47;33.00;;;21.70;;
17753;SDS011;8999;48.994;9.150;2023-02-15T12:32:22;31.02;;;21.08;;
17753;SDS011;8999;48.994;9.150;2023-02-15T12:34:55;33.13;;;21.33;;
17753;SDS011;8999;48.994;9.150;2023-02-15T12:37:31;36.33;;;22.80;;
17753;SDS011;8999;48.994;9.150;2023-02-15T12:40:18;40.10;;;23.87;;
17753;SDS011;8999;48.994;9.150;2023-02-15T12:42:51;37.83;;;24.23;;
17753;SDS011;8999;48.994;9.150;2023-02-15T12:45:24;37.13;;;23.20;;
17753;SDS011;8999;48.994;9.150;2023-02-15T12:48:12;35.83;;;23.00;;
17753;SDS011;8999;48.994;9.150;2023-02-15T12:50:47;33.70;;;23.37;;
17753;SDS011;8999;48.994;9.150;2023-02-15T12:53:20;36.08;;;22.88;;
17753;SDS011;8999;48.994;9.150;2023-02-15T12:55:55;36.33;;;21.33;;
17753;SDS011;8999;48.994;9.150;2023-02-15T12:58:28;36.70;;;22.93;;
17753;SDS011;8999;48.994;9.150;2023-02-15T13:01:02;38.00;;;22.73;;
17753;SDS011;8999;48.994;9.150;2023-02-15T13:03:54;35.90;;;22.47;;
17753;SDS011;8999;48.994;9.150;2023-02-15T13:06:27;34.97;;;22.13;;
17753;SDS011;8999;48.994;9.150;2023-02-15T13:09:05;34.63;;;22.67;;
17753;SDS011;8999;48.994;9.150;2023-02-15T13:11:39;36.77;;;21.93;;
17753;SDS011;8999;48.994;9.150;2023-02-15T13:14:16;34.70;;;22.23;;
17753;SDS011;8999;48.994;9.150;2023-02-15T13:16:50;33.20;;;20.83;;
17753;SDS011;8999;48.994;9.150;2023-02-15T13:19:22;34.33;;;22.23;;
17753;SDS011;8999;48.994;9.150;2023-02-15T13:22:00;33.22;;;21.77;;
17753;SDS011;8999;48.994;9.150;2023-02-15T13:24:33;34.03;;;22.07;;
17753;SDS011;8999;48.994;9.150;2023-02-15T13:27:10;34.27;;;21.67;;
17753;SDS011;8999;48.994;9.150;2023-02-15T13:29:46;34.27;;;22.27;;
17753;SDS011;8999;48.994;9.150;2023-02-15T13:32:23;33.70;;;21.73;;
17753;SDS011;8999;48.994;9.150;2023-02-15T13:34:58;31.13;;;21.70;;
17753;SDS011;8999;48.994;9.150;2023-02-15T13:37:37;30.23;;;20.60;;
17753;SDS011;8999;48.994;9.150;2023-02-15T13:40:21;30.98;;;20.45;;
17753;SDS011;8999;48.994;9.150;2023-02-15T13:42:59;29.75;;;20.27;;
17753;SDS011;8999;48.994;9.150;2023-02-15T13:45:37;30.95;;;20.88;;
17753;SDS011;8999;48.994;9.150;2023-02-15T13:48:15;30.70;;;20.48;;
17753;SDS011;8999;48.994;9.150;2023-02-15T13:50:53;30.17;;;20.33;;
17753;SDS011;8999;48.994;9.150;2023-02-15T13:53:35;31.23;;;21.10;;
17753;SDS011;8999;48.994;9.150;2023-02-15T13:56:16;30.95;;;20.92;;
17753;SDS011;8999;48.994;9.150;2023-02-15T14:02:11;35.35;;;22.27;;
17753;SDS011;8999;48.994;9.150;2023-02-15T14:05:05;31.88;;;21.42;;
17753;SDS011;8999;48.994;9.150;2023-02-15T14:07:46;31.13;;;21.48;;
17753;SDS011;8999;48.994;9.150;2023-02-15T14:10:30;32.15;;;21.00;;
17753;SDS011;8999;48.994;9.150;2023-02-15T14:13:27;34.13;;;21.30;;
17753;SDS011;8999;48.994;9.150;2023-02-15T14:16:19;29.02;;;20.08;;
17753;SDS011;8999;48.994;9.150;2023-02-15T14:18:59;31.48;;;21.50;;
17753;SDS011;8999;48.994;9.150;2023-02-15T14:21:34;32.40;;;21.88;;
17753;SDS011;8999;48.994;9.150;2023-02-15T14:24:15;41.00;;;22.00;;
17753;SDS011;8999;48.994;9.150;2023-02-15T14:26:54;30.80;;;20.20;;
17753;SDS011;8999;48.994;9.150;2023-02-15T14:29:36;29.92;;;20.35;;
17753;SDS011;8999;48.994;9.150;2023-02-15T14:32:18;29.38;;;20.30;;
17753;SDS011;8999;48.994;9.150;2023-02-15T14:34:55;31.13;;;19.92;;
17753;SDS011;8999;48.994;9.150;2023-02-15T14:37:31;31.02;;;20.98;;
17753;SDS011;8999;48.994;9.150;2023-02-15T14:40:12;30.15;;;20.75;;
17753;SDS011;8999;48.994;9.150;2023-02-15T14:43:08;32.35;;;21.25;;
17753;SDS011;8999;48.994;9.150;2023-02-15T14:45:55;30.35;;;20.83;;
17753;SDS011;8999;48.994;9.150;2023-02-15T14:48:30;33.08;;;21.25;;
17753;SDS011;8999;48.994;9.150;2023-02-15T14:51:03;36.30;;;20.58;;
17753;SDS011;8999;48.994;9.150;2023-02-15T14:53:35;31.98;;;20.85;;
17753;SDS011;8999;48.994;9.150;2023-02-15T14:56:16;31.95;;;21.23;;
17753;SDS011;8999;48.994;9.150;2023-02-15T14:58:56;30.25;;;21.95;;
17753;SDS011;8999;48.994;9.150;2023-02-15T15:01:30;34.63;;;22.52;;
17753;SDS011;8999;48.994;9.150;2023-02-15T15:14:42;31.23;;;21.55;;
17753;SDS011;8999;48.994;9.150;2023-02-15T15:20:39;31.17;;;21.27;;
17753;SDS011;8999;48.994;9.150;2023-02-15T15:29:07;32.17;;;21.35;;
17753;SDS011;8999;48.994;9.150;2023-02-15T15:31:42;31.92;;;21.67;;
17753;SDS011;8999;48.994;9.150;2023-02-15T15:34:34;33.65;;;24.40;;
17753;SDS011;8999;48.994;9.150;2023-02-15T15:37:30;115.88;;;64.85;;
17753;SDS011;8999;48.994;9.150;2023-02-15T15:43:34;34.60;;;22.60;;
17753;SDS011;8999;48.994;9.150;2023-02-15T15:46:32;36.15;;;23.83;;
17753;SDS011;8999;48.994;9.150;2023-02-15T15:49:23;33.85;;;23.33;;
17753;SDS011;8999;48.994;9.150;2023-02-15T15:51:56;35.53;;;22.20;;
17753;SDS011;8999;48.994;9.150;2023-02-15T15:54:31;31.83;;;22.55;;
17753;SDS011;8999;48.994;9.150;2023-02-15T15:57:03;35.38;;;23.90;;
17753;SDS011;8999;48.994;9.150;2023-02-15T15:59:36;36.90;;;23.92;;
17753;SDS011;8999;48.994;9.150;2023-02-15T16:02:15;37.60;;;23.73;;
17753;SDS011;8999;48.994;9.150;2023-02-15T16:04:49;38.60;;;24.33;;